Time;durP1;ratioP1;P1;durP2;ratioP2;P2;SDS_P1;SDS_P2;PMS_P1;PMS_P2;Temp;Humidity;BMP_temperature;BMP_pressure;BME280_temperature;BME280_humidity;BME280_pressure;Samples;Min_cycle;Max_cycle;Signal;HPM_P1;HPM_P2
2022/06/15 00:00:22;;;;;;;11.00;6.88;;;;;12.10;96601.00;;;;8385418;28;20214;-70
2022/06/15 00:04:26;;;;;;;14.10;6.80;;;;;12.00;96613.00;;;;8384496;28;20626;-70
2022/06/15 00:08:30;;;;;;;11.00;8.00;;;;;12.00;96605.00;;;;8383910;28;20235;-70
2022/06/15 00:12:33;;;;;;;9.32;7.03;;;;;12.00;96597.00;;;;8385611;28;20749;-70
2022/06/15 00:16:38;;;;;;;12.67;7.40;;;;;11.90;96598.00;;;;8386241;28;20202;-70
2022/06/15 00:20:41;;;;;;;12.57;7.40;;;;;11.80;96601.00;;;;8385030;28;20242;-70
2022/06/15 00:24:44;;;;;;;17.40;7.30;;;;;11.80;96600.00;;;;8385520;28;21755;-70
2022/06/15 00:28:47;;;;;;;13.05;8.02;;;;;11.70;96599.00;;;;8384212;28;20196;-70
2022/06/15 00:32:52;;;;;;;12.20;7.17;;;;;11.70;96599.00;;;;8385342;28;20199;-70
2022/06/15 00:36:55;;;;;;;13.27;7.32;;;;;11.60;96596.00;;;;8385862;28;20573;-70
2022/06/15 00:40:59;;;;;;;17.47;7.63;;;;;11.50;96593.00;;;;8384344;28;20218;-69
2022/06/15 00:45:03;;;;;;;14.77;8.02;;;;;11.60;96589.00;;;;8381547;28;20228;-70
2022/06/15 00:49:11;;;;;;;11.80;7.43;;;;;11.50;96588.00;;;;8383558;28;20199;-69
2022/06/15 00:53:15;;;;;;;15.13;6.90;;;;;11.40;96588.00;;;;8388990;28;20199;-69
2022/06/15 00:57:19;;;;;;;14.60;7.13;;;;;11.40;96584.00;;;;8383659;28;20868;-69
2022/06/15 01:01:22;;;;;;;14.15;7.70;;;;;11.30;96581.00;;;;8383012;28;20287;-70
2022/06/15 01:05:36;;;;;;;12.85;7.47;;;;;11.30;96572.00;;;;8384166;28;20809;-69
2022/06/15 01:09:47;;;;;;;12.93;8.43;;;;;11.30;96567.00;;;;8377787;28;20307;-71
2022/06/15 01:14:20;;;;;;;18.37;7.83;;;;;11.30;96574.00;;;;8381397;28;20203;-70
2022/06/15 01:18:32;;;;;;;13.43;8.00;;;;;11.30;96568.00;;;;8386017;28;20200;-71
2022/06/15 01:23:26;;;;;;;12.73;7.67;;;;;11.20;96566.00;;;;8384268;28;20687;-70
2022/06/15 01:28:15;;;;;;;12.33;7.33;;;;;11.20;96565.00;;;;8384052;28;20203;-70
2022/06/15 01:32:29;;;;;;;14.03;7.90;;;;;11.20;96568.00;;;;8354768;28;20683;-71
2022/06/15 01:36:41;;;;;;;16.70;7.87;;;;;11.10;96563.00;;;;8383088;28;20202;-71
2022/06/15 01:40:47;;;;;;;20.57;7.83;;;;;11.10;96560.00;;;;8389551;28;20215;-70
2022/06/15 01:44:55;;;;;;;18.80;8.33;;;;;11.10;96553.00;;;;8386190;28;20705;-69
2022/06/15 01:49:01;;;;;;;21.43;8.47;;;;;11.10;96569.00;;;;8382965;28;20200;-70
2022/06/15 01:53:13;;;;;;;14.33;8.33;;;;;11.10;96568.00;;;;8389238;28;20255;-70
2022/06/15 01:57:19;;;;;;;17.40;8.70;;;;;11.00;96559.00;;;;8385552;28;20288;-69
2022/06/15 02:01:29;;;;;;;17.43;8.63;;;;;11.00;96563.00;;;;8383832;28;20781;-69
2022/06/15 02:05:40;;;;;;;18.67;8.90;;;;;11.00;96567.00;;;;8381649;28;20224;-70
2022/06/15 02:09:49;;;;;;;18.43;8.60;;;;;11.00;96563.00;;;;8385303;28;20200;-70
2022/06/15 02:13:58;;;;;;;18.23;9.00;;;;;11.00;96558.00;;;;8383873;28;20196;-69
2022/06/15 02:18:07;;;;;;;17.30;9.63;;;;;11.00;96554.00;;;;8389630;28;20796;-69
2022/06/15 02:22:17;;;;;;;23.33;10.53;;;;;11.10;96542.00;;;;8387947;28;20909;-68
2022/06/15 02:26:20;;;;;;;86.30;15.03;;;;;11.30;96548.00;;;;8386934;28;20803;-69
2022/06/15 02:30:26;;;;;;;29.57;10.53;;;;;11.60;96546.00;;;;8387257;28;20188;-69
2022/06/15 02:34:29;;;;;;;33.13;9.63;;;;;11.80;96553.00;;;;8385616;28;20221;-70
2022/06/15 02:38:35;;;;;;;12.43;7.77;;;;;11.80;96552.00;;;;8387260;28;20223;-69
2022/06/15 02:42:41;;;;;;;13.67;7.23;;;;;11.70;96551.00;;;;8388463;28;20231;-69
2022/06/15 02:46:48;;;;;;;16.50;7.10;;;;;11.50;96552.00;;;;8384677;28;20231;-70
2022/06/15 02:50:55;;;;;;;13.97;7.17;;;;;11.40;96556.00;;;;8384921;28;20291;-71
2022/06/15 02:55:01;;;;;;;11.27;7.07;;;;;11.30;96549.00;;;;8383501;28;20215;-71
2022/06/15 02:59:06;;;;;;;13.63;7.67;;;;;11.20;96552.00;;;;8384672;28;20287;-71
2022/06/15 03:03:09;;;;;;;11.43;7.03;;;;;11.10;96548.00;;;;8430128;22;20239;-71
2022/06/15 03:07:14;;;;;;;12.57;8.07;;;;;11.00;96553.00;;;;8446402;27;20227;-70
2022/06/15 03:11:19;;;;;;;18.73;8.23;;;;;10.90;96552.00;;;;8441016;27;20218;-70
2022/06/15 03:15:22;;;;;;;15.83;9.07;;;;;11.00;96550.00;;;;8433077;27;20203;-69
2022/06/15 03:19:25;;;;;;;18.33;8.57;;;;;11.00;96554.00;;;;8440991;27;20209;-70
2022/06/15 03:23:30;;;;;;;19.87;9.17;;;;;11.10;96553.00;;;;8459810;27;20203;-70
2022/06/15 03:27:35;;;;;;;21.73;9.97;;;;;11.20;96543.00;;;;8455093;27;20230;-70
2022/06/15 03:31:38;;;;;;;13.37;8.33;;;;;11.30;96546.00;;;;8458181;27;20237;-71
2022/06/15 03:35:42;;;;;;;22.15;14.27;;;;;11.40;96542.00;;;;8458691;27;20722;-70
2022/06/15 03:39:48;;;;;;;14.10;7.90;;;;;11.40;96554.00;;;;8452824;27;20661;-71
2022/06/15 03:43:53;;;;;;;11.60;7.10;;;;;11.50;96549.00;;;;8434883;27;20198;-70
2022/06/15 03:47:57;;;;;;;14.73;8.53;;;;;11.60;96548.00;;;;8464327;27;20231;-71
2022/06/15 03:52:00;;;;;;;14.67;8.07;;;;;11.70;96550.00;;;;8442858;27;20646;-71
2022/06/15 03:56:03;;;;;;;12.80;8.00;;;;;11.90;96548.00;;;;8447083;27;20227;-70
2022/06/15 04:00:11;;;;;;;18.93;8.87;;;;;12.10;96547.00;;;;8446320;27;20537;-72
2022/06/15 04:04:14;;;;;;;14.17;8.07;;;;;12.40;96546.00;;;;8447570;28;20250;-72
2022/06/15 04:12:39;;;;;;;14.15;7.65;;;;;13.40;96539.00;;;;8453395;28;20214;-70
2022/06/15 04:16:44;;;;;;;13.63;6.67;;;;;14.10;96546.00;;;;8473351;28;20194;-69
2022/06/15 04:20:48;;;;;;;18.85;7.05;;;;;14.70;96545.00;;;;8446186;28;20211;-72
2022/06/15 04:24:51;;;;;;;9.77;6.68;;;;;15.30;96548.00;;;;8455098;28;20221;-69
2022/06/15 04:28:54;;;;;;;9.85;6.65;;;;;15.50;96551.00;;;;8455594;27;20244;-70
2022/06/15 04:32:59;;;;;;;11.65;6.65;;;;;15.80;96556.00;;;;8469748;27;20201;-74
2022/06/15 04:37:03;;;;;;;8.30;6.07;;;;;16.30;96566.00;;;;8470599;28;20196;-70
2022/06/15 04:41:07;;;;;;;14.23;6.63;;;;;16.50;96560.00;;;;8440081;27;20282;-70
2022/06/15 04:45:13;;;;;;;12.05;6.47;;;;;16.90;96560.00;;;;8452345;28;20221;-70
2022/06/15 04:49:17;;;;;;;8.95;6.22;;;;;17.10;96562.00;;;;8461460;28;20315;-73
2022/06/15 04:53:21;;;;;;;8.93;6.00;;;;;17.40;96566.00;;;;8456956;27;20196;-71
2022/06/15 04:57:24;;;;;;;9.80;6.18;;;;;17.70;96567.00;;;;8457188;27;20189;-73
2022/06/15 05:01:27;;;;;;;11.60;6.32;;;;;18.20;96572.00;;;;8457937;27;20695;-71
2022/06/15 05:05:32;;;;;;;8.13;5.57;;;;;18.40;96578.00;;;;8456567;27;20301;-71
2022/06/15 05:09:35;;;;;;;8.60;5.43;;;;;18.70;96587.00;;;;8449632;27;20199;-71
2022/06/15 05:13:39;;;;;;;9.60;4.93;;;;;18.90;96580.00;;;;8443566;27;20228;-73
2022/06/15 05:17:43;;;;;;;11.65;5.20;;;;;19.10;96587.00;;;;8455466;27;20202;-69
2022/06/15 05:21:48;;;;;;;8.27;5.13;;;;;19.20;96587.00;;;;8457655;27;20234;-71
2022/06/15 05:25:51;;;;;;;5.97;5.05;;;;;19.40;96591.00;;;;8469315;27;20254;-70
2022/06/15 05:29:54;;;;;;;8.50;4.97;;;;;19.50;96583.00;;;;8441413;27;20210;-70
2022/06/15 05:33:58;;;;;;;10.68;4.68;;;;;19.80;96584.00;;;;8469992;27;20229;-70
2022/06/15 05:38:03;;;;;;;8.02;5.15;;;;;20.10;96575.00;;;;8454762;27;20662;-70
2022/06/15 05:42:06;;;;;;;6.80;4.82;;;;;20.50;96580.00;;;;8430532;27;20192;-70
2022/06/15 05:46:15;;;;;;;5.65;4.28;;;;;21.10;96577.00;;;;8450895;27;20222;-70
2022/06/15 05:50:19;;;;;;;7.07;4.60;;;;;21.80;96575.00;;;;8450687;27;20199;-69
2022/06/15 05:54:23;;;;;;;8.13;5.07;;;;;22.30;96583.00;;;;8465025;27;20689;-70
2022/06/15 05:58:27;;;;;;;7.90;4.65;;;;;23.10;96583.00;;;;8454002;27;20845;-70
2022/06/15 06:02:30;;;;;;;7.35;4.55;;;;;23.50;96599.00;;;;8430626;27;20237;-70
2022/06/15 06:06:34;;;;;;;6.70;4.78;;;;;23.90;96606.00;;;;8454352;27;20230;-69
2022/06/15 06:10:39;;;;;;;12.65;5.65;;;;;24.10;96612.00;;;;8450247;27;20201;-69
2022/06/15 06:14:42;;;;;;;7.93;4.57;;;;;24.20;96606.00;;;;8458904;27;20222;-69
2022/06/15 06:18:46;;;;;;;10.05;5.43;;;;;24.50;96610.00;;;;8453704;27;20206;-69
2022/06/15 06:22:49;;;;;;;5.90;4.43;;;;;24.60;96616.00;;;;8462146;27;20238;-70
2022/06/15 06:26:59;;;;;;;7.32;4.13;;;;;24.70;96606.00;;;;8453377;27;20231;-71
2022/06/15 06:31:04;;;;;;;7.28;4.63;;;;;25.10;96606.00;;;;8440164;27;20278;-70
2022/06/15 06:35:08;;;;;;;6.90;4.80;;;;;25.30;96605.00;;;;8465872;27;20249;-70
2022/06/15 06:39:16;;;;;;;10.15;4.32;;;;;25.50;96616.00;;;;8444122;27;20235;-69
2022/06/15 06:43:21;;;;;;;8.07;4.95;;;;;25.50;96614.00;;;;8452757;27;20207;-69
2022/06/15 06:47:24;;;;;;;7.93;4.85;;;;;25.50;96614.00;;;;8439438;27;20628;-69
2022/06/15 06:51:28;;;;;;;9.18;4.47;;;;;25.40;96612.00;;;;8439569;27;20218;-70
2022/06/15 06:55:32;;;;;;;11.85;4.90;;;;;25.70;96618.00;;;;8451396;27;20228;-69
2022/06/15 06:59:36;;;;;;;8.65;4.10;;;;;25.80;96622.00;;;;8440724;27;20286;-69
2022/06/15 07:03:40;;;;;;;7.45;4.40;;;;;26.10;96627.00;;;;8451190;27;20814;-70
2022/06/15 07:07:43;;;;;;;9.07;4.43;;;;;26.30;96621.00;;;;8444758;27;20227;-69
2022/06/15 07:11:46;;;;;;;9.25;4.40;;;;;26.70;96618.00;;;;8433270;27;20277;-70
2022/06/15 07:15:51;;;;;;;10.88;4.05;;;;;27.00;96606.00;;;;8428970;27;20206;-69
2022/06/15 07:19:55;;;;;;;8.15;3.90;;;;;27.30;96608.00;;;;8465677;27;20230;-69
2022/06/15 07:23:59;;;;;;;12.07;3.97;;;;;27.60;96614.00;;;;8459270;27;20214;-70
2022/06/15 07:28:03;;;;;;;6.18;4.07;;;;;27.60;96611.00;;;;8465513;27;20224;-69
2022/06/15 07:32:08;;;;;;;5.50;3.67;;;;;27.80;96614.00;;;;8442884;27;20648;-70
2022/06/15 07:36:11;;;;;;;6.75;4.43;;;;;28.20;96606.00;;;;8479183;27;20204;-68
2022/06/15 07:40:15;;;;;;;9.70;3.75;;;;;28.70;96613.00;;;;8460632;27;20304;-70
2022/06/15 07:44:19;;;;;;;6.38;3.90;;;;;28.80;96612.00;;;;8458029;27;20698;-69
2022/06/15 07:52:47;;;;;;;6.15;3.70;;;;;29.20;96620.00;;;;8454834;27;20954;-70
2022/06/15 07:56:52;;;;;;;7.97;4.07;;;;;29.80;96618.00;;;;8466453;27;20190;-69
2022/06/15 08:00:55;;;;;;;9.40;4.10;;;;;30.00;96622.00;;;;8482324;27;20270;-71
2022/06/15 08:05:00;;;;;;;5.05;3.92;;;;;29.30;96615.00;;;;8440208;27;20200;-69
2022/06/15 08:09:03;;;;;;;9.52;4.22;;;;;29.50;96615.00;;;;8454667;28;20692;-70
2022/06/15 08:13:08;;;;;;;5.47;3.33;;;;;29.90;96606.00;;;;8463333;28;20211;-69
2022/06/15 08:17:15;;;;;;;5.60;3.78;;;;;30.40;96614.00;;;;8442567;28;20203;-69
2022/06/15 08:21:24;;;;;;;7.15;3.83;;;;;30.80;96600.00;;;;8474001;28;20280;-68
2022/06/15 08:25:32;;;;;;;4.38;3.00;;;;;31.20;96605.00;;;;8459525;27;20207;-68
2022/06/15 08:29:36;;;;;;;6.28;3.72;;;;;31.50;96598.00;;;;8456061;27;20221;-70
2022/06/15 08:33:39;;;;;;;8.77;4.45;;;;;31.70;96604.00;;;;8463925;27;20199;-69
2022/06/15 08:37:44;;;;;;;7.82;3.97;;;;;31.40;96595.00;;;;8436876;27;20199;-70
2022/06/15 08:41:55;;;;;;;8.13;3.90;;;;;30.60;96601.00;;;;8472413;27;20232;-70
2022/06/15 08:46:06;;;;;;;3.78;3.25;;;;;30.20;96605.00;;;;8460994;27;20254;-68
2022/06/15 08:50:16;;;;;;;6.22;3.42;;;;;30.30;96608.00;;;;8440612;27;20198;-68
2022/06/15 08:54:27;;;;;;;7.18;3.53;;;;;30.70;96597.00;;;;8451615;27;20195;-67
2022/06/15 08:58:42;;;;;;;6.63;3.40;;;;;31.30;96592.00;;;;8471729;27;20646;-68
2022/06/15 09:02:57;;;;;;;10.23;3.80;;;;;31.50;96596.00;;;;8484195;27;20316;-68
2022/06/15 09:07:16;;;;;;;3.42;3.10;;;;;31.70;96598.00;;;;8444859;27;20306;-67
2022/06/15 09:11:30;;;;;;;6.50;3.30;;;;;32.00;96588.00;;;;8456266;27;20232;-69
2022/06/15 09:15:44;;;;;;;14.25;3.83;;;;;32.70;96594.00;;;;8466736;27;20206;-70
2022/06/15 09:19:54;;;;;;;8.35;3.33;;;;;32.70;96600.00;;;;8474572;27;20214;-70
2022/06/15 09:24:02;;;;;;;10.30;3.25;;;;;32.20;96597.00;;;;8478578;27;20554;-70
2022/06/15 09:28:12;;;;;;;5.80;3.10;;;;;32.60;96593.00;;;;8475930;27;20225;-69
2022/06/15 09:32:20;;;;;;;9.02;3.53;;;;;33.30;96603.00;;;;8485023;27;20840;-69
2022/06/15 09:36:28;;;;;;;5.68;2.70;;;;;33.50;96597.00;;;;8475747;27;20209;-68
2022/06/15 09:40:37;;;;;;;5.97;3.30;;;;;33.80;96601.00;;;;8475166;27;20308;-68
2022/06/15 09:44:52;;;;;;;4.18;2.72;;;;;33.90;96606.00;;;;8483106;27;20282;-70
2022/06/15 09:49:12;;;;;;;5.07;2.72;;;;;34.10;96605.00;;;;8475938;27;21836;-69
2022/06/15 09:53:28;;;;;;;3.85;2.80;;;;;34.00;96599.00;;;;8470633;27;20230;-69
2022/06/15 09:57:31;;;;;;;4.20;2.60;;;;;34.40;96598.00;;;;8476280;27;20198;-71
2022/06/15 10:01:40;;;;;;;5.00;3.20;;;;;34.90;96601.00;;;;8468189;27;20647;-69
2022/06/15 10:05:45;;;;;;;5.10;2.67;;;;;35.40;96598.00;;;;8470102;27;20199;-67
2022/06/15 10:09:53;;;;;;;7.80;3.20;;;;;35.60;96593.00;;;;8470976;27;20221;-70
2022/06/15 10:13:56;;;;;;;4.65;3.05;;;;;35.90;96602.00;;;;8477449;27;20206;-68
2022/06/15 10:18:14;;;;;;;5.75;2.88;;;;;35.40;96593.00;;;;8472074;27;20301;-68
2022/06/15 10:22:25;;;;;;;2.90;2.70;;;;;35.30;96572.00;;;;8466349;27;20683;-70
2022/06/15 10:26:36;;;;;;;2.60;2.40;;;;;35.50;96585.00;;;;8470963;27;20872;-69
2022/06/15 10:30:51;;;;;;;3.88;2.60;;;;;35.90;96586.00;;;;8475379;27;20219;-70
2022/06/15 10:35:16;;;;;;;2.50;2.30;;;;;35.90;96588.00;;;;8474425;27;20199;-69
2022/06/15 10:39:24;;;;;;;4.55;2.15;;;;;36.50;96586.00;;;;8475450;27;20293;-69
2022/06/15 10:43:34;;;;;;;6.55;2.65;;;;;36.40;96584.00;;;;8450570;27;20281;-68
2022/06/15 10:47:45;;;;;;;3.10;2.45;;;;;36.70;96574.00;;;;8464704;27;20257;-71
2022/06/15 10:51:51;;;;;;;4.70;2.72;;;;;37.10;96579.00;;;;8479470;27;20194;-69
2022/06/15 11:04:54;;;;;;;2.50;2.30;;;;;37.10;96575.00;;;;8455748;27;20198;-68
2022/06/15 11:08:59;;;;;;;2.28;2.08;;;;;36.80;96562.00;;;;8417590;27;20341;-68
2022/06/15 11:13:05;;;;;;;3.10;2.70;;;;;36.90;96566.00;;;;8443447;27;20190;-68
2022/06/15 11:21:49;;;;;;;2.10;2.00;;;;;36.80;96563.00;;;;8430070;27;20229;-68
2022/06/15 11:26:01;;;;;;;2.25;1.83;;;;;37.00;96565.00;;;;8450735;27;20186;-69
2022/06/15 11:30:12;;;;;;;3.38;1.92;;;;;37.10;96557.00;;;;8446296;27;20229;-68
2022/06/15 11:34:22;;;;;;;2.47;2.17;;;;;37.40;96561.00;;;;8451511;27;20290;-68
2022/06/15 11:38:36;;;;;;;2.22;2.03;;;;;37.80;96563.00;;;;8436453;28;20211;-69
2022/06/15 11:42:40;;;;;;;2.53;1.88;;;;;38.00;96559.00;;;;8445701;27;20290;-69
2022/06/15 11:47:03;;;;;;;4.88;1.90;;;;;38.00;96562.00;;;;8460069;27;20683;-68
2022/06/15 11:51:16;;;;;;;4.78;2.10;;;;;38.20;96554.00;;;;8464347;27;20237;-70
2022/06/15 11:55:33;;;;;;;4.10;2.50;;;;;38.20;96551.00;;;;8479983;27;20560;-68
2022/06/15 11:59:44;;;;;;;4.53;2.40;;;;;38.10;96546.00;;;;8467901;27;20624;-69
2022/06/15 12:04:22;;;;;;;3.55;1.95;;;;;38.40;96544.00;;;;8435325;27;20240;-67
2022/06/15 12:08:34;;;;;;;4.53;1.60;;;;;38.50;96543.00;;;;8442085;28;20270;-71
2022/06/15 12:12:45;;;;;;;4.22;1.50;;;;;38.10;96538.00;;;;8447311;28;20199;-68
2022/06/15 12:16:56;;;;;;;1.85;1.75;;;;;38.10;96544.00;;;;8435137;28;20897;-68
2022/06/15 12:21:05;;;;;;;5.07;2.53;;;;;38.60;96538.00;;;;8447320;28;20194;-68
2022/06/15 12:25:18;;;;;;;2.90;2.00;;;;;38.70;96541.00;;;;8444736;28;20203;-67
2022/06/15 12:29:38;;;;;;;3.22;1.77;;;;;38.30;96529.00;;;;8431176;28;20226;-68
2022/06/15 12:33:50;;;;;;;3.35;1.65;;;;;38.30;96535.00;;;;8431930;27;20695;-68
2022/06/15 12:37:57;;;;;;;4.10;1.85;;;;;38.30;96532.00;;;;8424754;28;20301;-69
2022/06/15 12:42:11;;;;;;;4.68;1.67;;;;;38.10;96534.00;;;;8461220;27;20448;-68
2022/06/15 12:46:16;;;;;;;1.50;1.40;;;;;37.80;96523.00;;;;8432956;28;20505;-69
2022/06/15 12:50:39;;;;;;;1.50;1.40;;;;;37.30;96520.00;;;;8432509;28;20238;-68
2022/06/15 12:54:59;;;;;;;2.10;1.70;;;;;36.90;96526.00;;;;8444684;28;20201;-70
2022/06/15 12:59:26;;;;;;;1.52;1.42;;;;;36.40;96515.00;;;;8444510;28;20204;-68
2022/06/15 13:03:48;;;;;;;1.77;1.50;;;;;36.00;96516.00;;;;8454295;28;20225;-67
2022/06/15 13:08:33;;;;;;;1.98;1.50;;;;;35.80;96514.00;;;;8451515;28;20696;-68
2022/06/15 13:12:41;;;;;;;1.90;1.75;;;;;36.00;96518.00;;;;8446762;27;20199;-67
2022/06/15 13:16:57;;;;;;;1.30;1.20;;;;;36.70;96520.00;;;;8461245;27;20638;-68
2022/06/15 13:21:05;;;;;;;4.43;1.45;;;;;37.50;96517.00;;;;8465416;27;20618;-68
2022/06/15 13:25:12;;;;;;;2.95;1.42;;;;;37.60;96517.00;;;;8430513;27;20206;-68
2022/06/15 13:29:21;;;;;;;1.38;1.38;;;;;37.60;96512.00;;;;8435681;27;20237;-68
2022/06/15 13:34:06;;;;;;;2.03;1.60;;;;;38.00;96505.00;;;;8439286;27;20277;-69
2022/06/15 13:38:28;;;;;;;3.58;1.75;;;;;38.20;96504.00;;;;8441488;27;20184;-70
2022/06/15 13:42:37;;;;;;;1.20;1.20;;;;;38.40;96501.00;;;;8432019;27;20212;-68
2022/06/15 13:46:53;;;;;;;1.10;1.10;;;;;38.60;96505.00;;;;8453131;27;20926;-69
2022/06/15 13:51:08;;;;;;;1.17;1.17;;;;;38.70;96505.00;;;;8456681;27;20223;-69
2022/06/15 13:55:39;;;;;;;3.60;1.20;;;;;38.70;96502.00;;;;8458491;27;20623;-70
2022/06/15 13:59:58;;;;;;;0.80;0.80;;;;;38.90;96497.00;;;;8448096;27;20214;-69
2022/06/15 14:04:38;;;;;;;2.38;0.93;;;;;38.80;96502.00;;;;8476445;27;20222;-68
2022/06/15 14:09:14;;;;;;;1.58;1.20;;;;;38.90;96500.00;;;;8456492;27;20221;-69
2022/06/15 14:13:40;;;;;;;1.65;1.00;;;;;39.30;96497.00;;;;8429576;27;20198;-68
2022/06/15 14:18:37;;;;;;;1.08;1.08;;;;;39.60;96495.00;;;;8439880;27;20202;-69
2022/06/15 14:22:55;;;;;;;2.65;1.50;;;;;39.80;96494.00;;;;8354464;27;20959;-70
2022/06/15 14:27:27;;;;;;;4.00;1.65;;;;;39.70;96488.00;;;;8452882;27;20538;-71
2022/06/15 14:31:32;;;;;;;2.65;1.27;;;;;39.60;96491.00;;;;8458896;27;20242;-71
2022/06/15 14:35:39;;;;;;;1.20;1.20;;;;;39.50;96491.00;;;;8431487;28;20206;-75
2022/06/15 14:39:51;;;;;;;1.48;1.25;;;;;39.50;96483.00;;;;8453108;27;20457;-75
2022/06/15 14:43:55;;;;;;;1.60;1.50;;;;;39.40;96478.00;;;;8466312;27;20190;-71
2022/06/15 14:48:06;;;;;;;2.05;1.30;;;;;39.10;96489.00;;;;8445854;27;20223;-72
2022/06/15 14:52:23;;;;;;;1.33;1.23;;;;;39.10;96489.00;;;;8437006;27;20270;-67
2022/06/15 14:56:30;;;;;;;3.20;1.30;;;;;39.40;96477.00;;;;8445843;27;20537;-67
2022/06/15 15:00:35;;;;;;;2.38;1.40;;;;;39.40;96485.00;;;;8457520;27;20204;-68
2022/06/15 15:04:42;;;;;;;1.60;1.50;;;;;39.30;96477.00;;;;8431764;27;20234;-69
2022/06/15 15:08:49;;;;;;;1.55;1.45;;;;;39.10;96478.00;;;;8456193;27;20229;-72
2022/06/15 15:12:55;;;;;;;1.73;1.58;;;;;39.10;96483.00;;;;8467309;27;20194;-69
2022/06/15 15:17:04;;;;;;;1.60;1.50;;;;;38.90;96473.00;;;;8444630;27;20199;-74
2022/06/15 15:21:24;;;;;;;1.55;1.50;;;;;38.50;96479.00;;;;8463752;27;20195;-74
2022/06/15 15:25:48;;;;;;;5.40;1.50;;;;;38.10;96473.00;;;;8453686;27;20287;-76
2022/06/15 15:34:51;;;;;;;1.50;1.40;;;;;38.20;96460.00;;;;8464622;27;20195;-79
2022/06/15 15:38:54;;;;;;;2.50;1.52;;;;;38.40;96452.00;;;;8424990;27;20218;-71
2022/06/15 15:42:57;;;;;;;5.45;1.42;;;;;38.40;96459.00;;;;8454141;27;20198;-78
2022/06/15 15:47:04;;;;;;;2.50;1.67;;;;;38.40;96444.00;;;;8447508;27;20195;-73
2022/06/15 15:51:07;;;;;;;1.40;1.40;;;;;38.40;96452.00;;;;8378111;28;20229;-69
2022/06/15 15:55:13;;;;;;;1.95;1.40;;;;;38.50;96452.00;;;;8387437;28;20642;-74
2022/06/15 15:59:20;;;;;;;2.53;1.77;;;;;38.60;96447.00;;;;8382223;28;20538;-75
2022/06/15 16:03:25;;;;;;;1.58;1.48;;;;;38.60;96447.00;;;;8386026;28;20685;-73
2022/06/15 16:07:29;;;;;;;3.03;1.38;;;;;38.60;96440.00;;;;8381448;28;20215;-73
2022/06/15 16:11:35;;;;;;;1.30;1.30;;;;;38.40;96438.00;;;;8375526;28;20230;-72
2022/06/15 16:15:41;;;;;;;5.60;1.70;;;;;38.40;96436.00;;;;8380801;28;20226;-73
2022/06/15 16:19:47;;;;;;;1.40;1.30;;;;;38.50;96438.00;;;;8375603;28;20207;-73
2022/06/15 16:23:53;;;;;;;2.33;1.40;;;;;38.70;96427.00;;;;8386282;28;20544;-74
2022/06/15 16:27:57;;;;;;;1.70;1.60;;;;;38.70;96427.00;;;;8388464;28;20291;-71
2022/06/15 16:32:00;;;;;;;2.38;1.65;;;;;38.70;96424.00;;;;8369037;28;20228;-73
2022/06/15 16:36:07;;;;;;;2.47;1.40;;;;;38.80;96424.00;;;;8371534;28;20207;-73
2022/06/15 16:40:11;;;;;;;2.50;1.70;;;;;39.00;96434.00;;;;8378175;28;20271;-72
2022/06/15 16:44:14;;;;;;;1.80;1.70;;;;;39.00;96431.00;;;;8381623;28;20210;-74
2022/06/15 16:48:18;;;;;;;2.10;1.42;;;;;39.20;96430.00;;;;8393545;28;20188;-73
2022/06/15 16:52:23;;;;;;;1.50;1.42;;;;;39.40;96424.00;;;;8387030;28;20693;-73
2022/06/15 16:56:28;;;;;;;1.90;1.42;;;;;39.40;96430.00;;;;8393512;28;20210;-73
2022/06/15 17:00:31;;;;;;;1.85;1.20;;;;;39.20;96430.00;;;;8379020;28;20279;-73
2022/06/15 17:04:35;;;;;;;1.55;1.30;;;;;39.30;96431.00;;;;8390824;28;20632;-72
2022/06/15 17:08:43;;;;;;;1.40;1.20;;;;;39.60;96427.00;;;;8396249;28;20310;-74
2022/06/15 17:12:46;;;;;;;1.40;1.30;;;;;39.70;96420.00;;;;8371299;28;20232;-74
2022/06/15 17:16:50;;;;;;;3.63;1.60;;;;;39.80;96419.00;;;;8400752;28;20204;-72
2022/06/15 17:20:55;;;;;;;2.17;1.70;;;;;39.80;96416.00;;;;8402327;28;20673;-74
2022/06/15 17:25:00;;;;;;;1.50;1.40;;;;;39.90;96418.00;;;;8376852;28;20345;-73
2022/06/15 17:29:04;;;;;;;3.95;1.50;;;;;39.90;96416.00;;;;8382752;28;20720;-74
2022/06/15 17:33:08;;;;;;;6.35;1.85;;;;;39.60;96411.00;;;;8392829;28;20665;-72
2022/06/15 17:37:12;;;;;;;1.85;1.42;;;;;39.50;96409.00;;;;8401809;28;20450;-72
2022/06/15 17:41:22;;;;;;;1.70;1.60;;;;;39.40;96411.00;;;;8386932;28;20283;-73
2022/06/15 17:45:27;;;;;;;1.70;1.60;;;;;39.30;96405.00;;;;8376085;28;20557;-73
2022/06/15 17:49:31;;;;;;;3.72;1.50;;;;;39.10;96410.00;;;;8389273;28;20235;-74
2022/06/15 17:53:34;;;;;;;2.05;1.63;;;;;38.60;96406.00;;;;8377286;28;20279;-76
2022/06/15 17:57:40;;;;;;;4.97;1.50;;;;;37.80;96405.00;;;;8379002;28;20274;-79
2022/06/15 18:01:46;;;;;;;3.88;1.50;;;;;36.70;96407.00;;;;8375337;28;20232;-77
2022/06/15 18:05:50;;;;;;;4.85;2.40;;;;;35.50;96411.00;;;;8386497;28;20279;-74
2022/06/15 18:09:53;;;;;;;2.80;2.42;;;;;34.50;96410.00;;;;8391579;28;22021;-72
2022/06/15 18:14:05;;;;;;;2.30;1.90;;;;;33.60;96403.00;;;;8384550;28;20549;-74
2022/06/15 18:18:10;;;;;;;3.97;1.92;;;;;32.80;96400.00;;;;8410060;28;20302;-75
2022/06/15 18:22:15;;;;;;;4.32;1.83;;;;;32.10;96406.00;;;;8390093;28;20757;-73
2022/06/15 18:26:19;;;;;;;2.22;1.95;;;;;31.40;96407.00;;;;8404138;28;20239;-75
2022/06/15 18:30:24;;;;;;;5.00;2.38;;;;;30.60;96401.00;;;;8397531;28;20215;-73
2022/06/15 18:34:31;;;;;;;4.35;2.10;;;;;29.90;96401.00;;;;8391602;28;20638;-74
2022/06/15 18:38:36;;;;;;;7.10;1.77;;;;;29.20;96405.00;;;;8381292;28;20310;-73
2022/06/15 18:42:39;;;;;;;3.97;2.08;;;;;28.50;96396.00;;;;8381424;28;20216;-73
2022/06/15 18:51:05;;;;;;;4.88;2.50;;;;;27.20;96400.00;;;;8367573;28;20224;-70
2022/06/15 18:55:11;;;;;;;3.90;2.08;;;;;26.60;96398.00;;;;8376286;28;20628;-74
2022/06/15 18:59:15;;;;;;;2.00;1.90;;;;;25.90;96397.00;;;;8369758;28;20952;-72
2022/06/15 19:03:20;;;;;;;2.42;1.70;;;;;25.30;96387.00;;;;8363317;28;20322;-72
2022/06/15 19:07:24;;;;;;;2.05;1.85;;;;;24.80;96385.00;;;;8385917;28;20783;-72
2022/06/15 19:11:27;;;;;;;3.85;2.10;;;;;24.30;96388.00;;;;8384779;28;20273;-72
2022/06/15 19:15:31;;;;;;;2.00;1.90;;;;;23.80;96396.00;;;;8388159;28;20290;-75
2022/06/15 19:19:35;;;;;;;3.28;2.05;;;;;23.30;96400.00;;;;8386739;28;20209;-69
2022/06/15 19:23:39;;;;;;;3.88;2.17;;;;;22.80;96400.00;;;;8375608;28;20295;-75
2022/06/15 19:27:44;;;;;;;3.42;1.90;;;;;22.50;96398.00;;;;8379461;28;20230;-69
2022/06/15 19:31:48;;;;;;;2.30;2.20;;;;;22.10;96410.00;;;;8378466;28;20377;-70
2022/06/15 19:35:53;;;;;;;7.50;2.58;;;;;21.80;96405.00;;;;8399312;28;20206;-73
2022/06/15 19:39:56;;;;;;;2.83;2.22;;;;;21.40;96402.00;;;;8377454;28;20196;-72
2022/06/15 19:44:00;;;;;;;4.55;2.28;;;;;21.20;96409.00;;;;8375761;28;20288;-70
2022/06/15 19:48:05;;;;;;;2.75;2.55;;;;;21.00;96414.00;;;;8385449;28;20209;-68
2022/06/15 19:52:10;;;;;;;4.95;2.30;;;;;20.80;96423.00;;;;8374415;28;20228;-67
2022/06/15 19:56:14;;;;;;;2.65;2.40;;;;;20.60;96421.00;;;;8388970;28;20199;-69
2022/06/15 20:00:20;;;;;;;4.30;2.42;;;;;20.40;96415.00;;;;8372262;28;20193;-72
2022/06/15 20:04:24;;;;;;;3.60;2.28;;;;;20.20;96426.00;;;;8375216;28;20232;-70
2022/06/15 20:08:32;;;;;;;2.60;2.40;;;;;20.00;96430.00;;;;8385974;28;20891;-67
2022/06/15 20:12:36;;;;;;;5.20;2.42;;;;;19.90;96425.00;;;;8368960;28;20255;-68
2022/06/15 20:16:44;;;;;;;2.17;2.08;;;;;19.70;96426.00;;;;8379123;28;20735;-67
2022/06/15 20:20:49;;;;;;;4.20;2.60;;;;;19.50;96427.00;;;;8375361;28;20283;-68
2022/06/15 20:24:56;;;;;;;2.65;2.45;;;;;19.40;96425.00;;;;8370806;28;20237;-70
2022/06/15 20:29:05;;;;;;;2.78;2.58;;;;;19.30;96422.00;;;;8380162;28;20596;-68
2022/06/15 20:33:08;;;;;;;5.13;2.78;;;;;19.10;96423.00;;;;8384348;28;20330;-68
2022/06/15 20:37:11;;;;;;;3.10;2.80;;;;;19.00;96424.00;;;;8389475;28;20203;-68
2022/06/15 20:41:18;;;;;;;3.70;2.95;;;;;18.90;96421.00;;;;8380955;28;20780;-68
2022/06/15 20:45:22;;;;;;;4.22;3.13;;;;;18.80;96419.00;;;;8377737;28;20659;-68
2022/06/15 20:49:29;;;;;;;5.15;3.20;;;;;18.70;96419.00;;;;8370153;28;20203;-67
2022/06/15 20:53:33;;;;;;;3.47;3.17;;;;;18.60;96425.00;;;;8367568;28;20232;-68
2022/06/15 20:57:38;;;;;;;6.40;3.20;;;;;18.40;96419.00;;;;8395068;28;20209;-69
2022/06/15 21:01:42;;;;;;;3.40;3.10;;;;;18.30;96418.00;;;;8399758;28;20270;-71
2022/06/15 21:05:45;;;;;;;5.60;3.20;;;;;18.20;96428.00;;;;8396492;28;20210;-70
2022/06/15 21:17:36;;;;;;;5.82;3.20;;;;;18.10;96421.00;;;;8392032;28;20299;-70